createdAt,value
2023-01-17T00:00:41.517Z,96764.88
2023-01-17T00:03:15.020Z,96764.88
2023-01-17T00:06:00.607Z,96775.59
2023-01-17T00:08:48.305Z,96766.94
2023-01-17T00:11:15.297Z,96773.94
2023-01-17T00:13:42.183Z,96782.13
2023-01-17T00:16:10.295Z,96777.66
2023-01-17T00:19:03.684Z,96774.38
2023-01-17T00:21:49.013Z,96766.44
2023-01-17T00:24:34.700Z,96757.22
2023-01-17T00:27:13.791Z,96756.59
2023-01-17T00:29:46.822Z,96746.53
2023-01-17T00:32:14.788Z,96735.53
2023-01-17T00:34:42.688Z,96741.75
2023-01-17T00:37:09.722Z,96742.03
2023-01-17T00:39:44.795Z,96736.53
2023-01-17T00:42:12.834Z,96747.25
2023-01-17T00:44:58.573Z,96753.59
2023-01-17T00:47:44.204Z,96744.25
2023-01-17T00:50:29.400Z,96752.81
2023-01-17T00:53:15.241Z,96760.59
2023-01-17T00:56:00.849Z,96774.66
2023-01-17T00:58:46.043Z,96764.19
2023-01-17T01:01:32.798Z,96767.00
2023-01-17T01:04:18.296Z,96757.31
2023-01-17T01:07:04.656Z,96762.59
2023-01-17T01:09:50.284Z,96749.47
2023-01-17T01:12:35.529Z,96753.84
2023-01-17T01:15:21.291Z,96763.53
2023-01-17T01:18:06.986Z,96770.69
2023-01-17T01:20:52.700Z,96774.25
2023-01-17T01:23:38.283Z,96781.25
2023-01-17T01:26:25.000Z,96783.91
2023-01-17T01:29:10.879Z,96780.56
2023-01-17T01:31:56.516Z,96771.22
2023-01-17T01:34:25.792Z,96774.00
2023-01-17T01:36:53.779Z,96782.00
2023-01-17T01:39:20.692Z,96776.06
2023-01-17T01:41:49.994Z,96781.44
2023-01-17T01:44:35.416Z,96774.72
2023-01-17T01:47:02.867Z,96781.53
2023-01-17T01:49:30.681Z,96786.25
2023-01-17T01:51:59.868Z,96794.16
2023-01-17T01:54:36.812Z,96788.13
2023-01-17T01:57:06.134Z,96782.22
2023-01-17T01:59:34.080Z,96797.00
2023-01-17T02:02:02.045Z,96784.41
2023-01-17T02:04:30.219Z,96799.19
2023-01-17T02:07:04.346Z,96796.19
2023-01-17T02:09:31.212Z,96804.00
2023-01-17T02:11:59.418Z,96796.44
2023-01-17T02:14:26.724Z,96796.44
2023-01-17T02:17:06.476Z,96793.50
2023-01-17T02:19:41.459Z,96792.47
2023-01-17T02:22:09.448Z,96786.56
2023-01-17T02:24:51.028Z,96792.03
2023-01-17T02:27:34.593Z,96800.91
2023-01-17T02:30:20.425Z,96792.25
2023-01-17T02:32:53.657Z,96796.59
2023-01-17T02:35:34.353Z,96793.97
2023-01-17T02:38:08.484Z,96809.72
2023-01-17T02:40:56.400Z,96791.56
2023-01-17T02:43:25.090Z,96792.28
2023-01-17T02:45:54.395Z,96782.91
2023-01-17T02:48:25.188Z,96794.47
2023-01-17T02:50:52.463Z,96790.25
2023-01-17T02:53:37.926Z,96795.47
2023-01-17T02:56:20.088Z,96782.53
2023-01-17T02:58:59.403Z,96791.13
2023-01-17T03:01:30.500Z,96778.09
2023-01-17T03:04:13.197Z,96780.69
2023-01-17T03:06:54.722Z,96789.09
2023-01-17T03:09:22.934Z,96792.44
2023-01-17T03:11:49.852Z,96797.66
2023-01-17T03:14:16.821Z,96797.50
2023-01-17T03:16:43.749Z,96799.38
2023-01-17T03:19:14.966Z,96803.06
2023-01-17T03:21:42.569Z,96800.69
2023-01-17T03:24:10.828Z,96802.38
2023-01-17T03:26:37.726Z,96814.34
2023-01-17T03:29:05.621Z,96815.34
2023-01-17T03:31:32.614Z,96817.19
2023-01-17T03:33:59.496Z,96811.13
2023-01-17T03:36:27.708Z,96825.91
2023-01-17T03:38:54.919Z,96812.13
2023-01-17T03:41:21.956Z,96817.19
2023-01-17T03:43:48.884Z,96821.31
2023-01-17T03:46:23.387Z,96824.69
2023-01-17T03:48:51.654Z,96808.28
2023-01-17T03:51:19.171Z,96817.63
2023-01-17T03:53:50.247Z,96811.63
2023-01-17T03:56:17.433Z,96825.44
2023-01-17T03:58:45.395Z,96811.63
2023-01-17T04:01:13.748Z,96819.31
2023-01-17T04:03:40.825Z,96807.09
2023-01-17T04:06:09.368Z,96811.31
2023-01-17T04:08:36.287Z,96805.19
2023-01-17T04:11:03.656Z,96799.63
2023-01-17T04:13:30.593Z,96814.38
2023-01-17T04:15:57.589Z,96822.69
2023-01-17T04:18:25.363Z,96823.34
2023-01-17T04:20:54.552Z,96827.69
2023-01-17T04:23:22.516Z,96837.00
2023-01-17T04:25:50.401Z,96819.66
2023-01-17T04:28:18.430Z,96830.03
2023-01-17T04:30:51.562Z,96814.38
2023-01-17T04:33:18.734Z,96830.88
2023-01-17T04:35:45.887Z,96827.47
2023-01-17T04:38:12.987Z,96823.78
2023-01-17T04:40:41.339Z,96830.88
2023-01-17T04:43:10.334Z,96824.88
2023-01-17T04:45:39.411Z,96826.38
2023-01-17T04:48:07.162Z,96838.69
2023-01-17T04:50:36.330Z,96839.28
2023-01-17T04:53:04.212Z,96827.16
2023-01-17T04:55:31.696Z,96839.13
2023-01-17T04:57:58.645Z,96834.91
2023-01-17T05:00:25.687Z,96832.38
2023-01-17T05:02:53.840Z,96841.13
2023-01-17T05:05:22.068Z,96836.91
2023-01-17T05:07:54.012Z,96838.44
2023-01-17T05:10:22.379Z,96836.81
2023-01-17T05:13:00.150Z,96838.53
2023-01-17T05:15:27.700Z,96848.13
2023-01-17T05:17:54.666Z,96843.91
2023-01-17T05:20:23.702Z,96829.34
2023-01-17T05:22:57.810Z,96843.91
2023-01-17T05:25:26.060Z,96846.50
2023-01-17T05:27:53.481Z,96839.63
2023-01-17T05:30:21.231Z,96836.09
2023-01-17T05:32:53.791Z,96836.00
2023-01-17T05:35:28.758Z,96843.13
2023-01-17T05:37:56.249Z,96844.34
2023-01-17T05:40:25.062Z,96835.56
2023-01-17T05:42:53.324Z,96845.84
2023-01-17T05:45:21.635Z,96844.34
2023-01-17T05:47:51.897Z,96847.88
2023-01-17T05:50:20.053Z,96847.94
2023-01-17T05:52:56.190Z,96830.44
2023-01-17T05:55:23.693Z,96859.00
2023-01-17T05:57:50.974Z,96835.56
2023-01-17T06:00:18.533Z,96847.03
2023-01-17T06:02:46.377Z,96844.16
2023-01-17T06:05:14.081Z,96860.00
2023-01-17T06:07:47.807Z,96860.72
2023-01-17T06:10:15.732Z,96864.28
2023-01-17T06:12:43.745Z,96867.72
2023-01-17T06:15:12.355Z,96866.72
2023-01-17T06:17:40.560Z,96876.31
2023-01-17T06:20:09.584Z,96874.47
2023-01-17T06:22:36.864Z,96873.47
2023-01-17T06:25:03.910Z,96879.78
2023-01-17T06:27:31.114Z,96885.81
2023-01-17T06:29:58.024Z,96884.06
2023-01-17T06:32:26.065Z,96892.03
2023-01-17T06:34:55.197Z,96885.00
2023-01-17T06:37:22.494Z,96893.56
2023-01-17T06:39:49.468Z,96879.09
2023-01-17T06:42:17.442Z,96899.22
2023-01-17T06:44:47.068Z,96901.72
2023-01-17T06:47:14.440Z,96906.94
2023-01-17T06:49:41.322Z,96904.34
2023-01-17T06:52:08.273Z,96906.94
2023-01-17T06:54:41.332Z,96910.41
2023-01-17T06:57:09.434Z,96912.16
2023-01-17T06:59:36.869Z,96910.66
2023-01-17T07:02:03.865Z,96914.63
2023-01-17T07:04:31.214Z,96911.25
2023-01-17T07:07:01.451Z,96917.53
2023-01-17T07:09:28.411Z,96921.09
2023-01-17T07:12:00.006Z,96919.22
2023-01-17T07:14:27.223Z,96927.81
2023-01-17T07:16:54.208Z,96923.44
2023-01-17T07:19:21.137Z,96926.16
2023-01-17T07:21:52.639Z,96932.06
2023-01-17T07:24:20.021Z,96933.97
2023-01-17T07:26:51.780Z,96938.25
2023-01-17T07:29:19.234Z,96943.09
2023-01-17T07:31:46.170Z,96937.19
2023-01-17T07:34:13.452Z,96947.53
2023-01-17T07:36:40.415Z,96940.63
2023-01-17T07:39:07.494Z,96939.63
2023-01-17T07:41:35.956Z,96939.69
2023-01-17T07:44:02.778Z,96937.28
2023-01-17T07:46:29.728Z,96937.91
2023-01-17T07:48:56.764Z,96949.22
2023-01-17T07:51:23.714Z,96943.81
2023-01-17T07:53:51.114Z,96953.38
2023-01-17T07:56:17.965Z,96954.19
2023-01-17T07:58:45.013Z,96951.75
2023-01-17T08:01:13.557Z,96951.59
2023-01-17T08:03:40.741Z,96944.50
2023-01-17T08:06:19.057Z,96948.97
2023-01-17T08:08:46.369Z,96956.47
2023-01-17T08:11:13.908Z,96960.59
2023-01-17T08:13:41.990Z,96961.38
2023-01-17T08:16:11.959Z,96971.56
2023-01-17T08:18:39.037Z,96975.94
2023-01-17T08:21:13.473Z,96979.16
2023-01-17T08:23:40.532Z,96983.28
2023-01-17T08:26:08.883Z,96991.22
2023-01-17T08:28:37.956Z,96990.94
2023-01-17T08:31:09.456Z,96994.09
2023-01-17T08:33:37.500Z,96983.72
2023-01-17T08:36:05.502Z,96995.09
2023-01-17T08:38:33.495Z,97003.69
2023-01-17T08:41:01.218Z,97011.28
2023-01-17T08:43:28.779Z,97005.97
2023-01-17T08:46:02.655Z,97005.88
2023-01-17T08:48:29.925Z,97005.38
2023-01-17T08:51:00.279Z,97012.63
2023-01-17T08:53:27.427Z,97011.72
2023-01-17T08:56:01.301Z,97015.06
2023-01-17T08:58:30.613Z,97012.13
2023-01-17T09:01:02.746Z,97010.88
2023-01-17T09:03:31.029Z,97012.88
2023-01-17T09:06:03.133Z,97014.16
2023-01-17T09:08:30.507Z,97013.63
2023-01-17T09:10:57.535Z,97019.19
2023-01-17T09:13:24.546Z,97030.66
2023-01-17T09:15:51.400Z,97029.63
2023-01-17T09:18:18.333Z,97027.94
2023-01-17T09:20:46.349Z,97034.81
2023-01-17T09:23:13.313Z,97038.34
2023-01-17T09:25:44.827Z,97037.38
2023-01-17T09:28:12.825Z,97044.75
2023-01-17T09:30:39.728Z,97049.34
2023-01-17T09:33:06.745Z,97048.22
2023-01-17T09:35:34.780Z,97043.06
2023-01-17T09:38:02.154Z,97041.03
2023-01-17T09:40:29.261Z,97044.09
2023-01-17T09:43:01.638Z,97038.22
2023-01-17T09:45:30.811Z,97044.22
2023-01-17T09:47:59.449Z,97040.28
2023-01-17T09:50:29.586Z,97035.84
2023-01-17T09:53:01.526Z,97037.31
2023-01-17T09:55:37.446Z,97029.84
2023-01-17T09:58:21.264Z,97025.59
2023-01-17T10:01:03.923Z,97032.97
2023-01-17T10:03:42.753Z,97024.28
2023-01-17T10:06:18.823Z,97023.31
2023-01-17T10:08:57.772Z,97020.25
2023-01-17T10:11:25.084Z,97022.19
2023-01-17T10:13:58.167Z,97013.97
2023-01-17T10:16:25.191Z,97020.44
2023-01-17T10:19:01.202Z,97020.56
2023-01-17T10:21:46.460Z,97021.69
2023-01-17T10:24:25.794Z,97025.41
2023-01-17T10:26:56.517Z,97022.28
2023-01-17T10:29:28.321Z,97035.09
2023-01-17T10:32:01.788Z,97039.38
2023-01-17T10:34:29.078Z,97021.94
2023-01-17T10:37:06.783Z,97028.38
2023-01-17T10:39:35.379Z,97024.28
2023-01-17T10:42:18.471Z,97032.88
2023-01-17T10:44:56.080Z,97035.88
2023-01-17T10:47:25.141Z,97029.84
2023-01-17T10:49:55.575Z,97025.50
2023-01-17T10:52:25.329Z,97027.91
2023-01-17T10:55:10.942Z,97025.41
2023-01-17T10:57:42.951Z,97032.44
2023-01-17T11:00:20.798Z,97042.31
2023-01-17T11:02:50.941Z,97025.03
2023-01-17T11:05:23.337Z,97023.25
2023-01-17T11:08:01.549Z,97018.91
2023-01-17T11:10:42.213Z,97021.97
2023-01-17T11:13:28.472Z,97010.28
2023-01-17T11:16:06.793Z,97017.84
2023-01-17T11:18:35.944Z,97020.13
2023-01-17T11:21:21.373Z,97029.25
2023-01-17T11:23:50.052Z,97038.00
2023-01-17T11:26:27.712Z,97027.47
2023-01-17T11:29:13.940Z,97024.72
2023-01-17T11:31:41.073Z,97029.44
2023-01-17T11:34:14.055Z,97026.47
2023-01-17T11:36:49.502Z,97015.47
2023-01-17T11:39:19.211Z,97019.06
2023-01-17T11:41:48.158Z,97025.69
2023-01-17T11:44:26.276Z,97024.56
2023-01-17T11:47:17.309Z,97012.66
2023-01-17T11:49:46.626Z,97018.41
2023-01-17T11:52:24.736Z,97007.84
2023-01-17T11:54:54.065Z,97022.88
2023-01-17T11:57:25.070Z,97001.75
2023-01-17T11:59:57.083Z,96985.28
2023-01-17T12:02:33.180Z,96981.84
2023-01-17T12:05:09.794Z,96976.34
2023-01-17T12:07:48.933Z,96976.84
2023-01-17T12:10:16.173Z,96977.44
2023-01-17T12:13:11.881Z,96978.41
2023-01-17T12:16:00.643Z,96980.41
2023-01-17T12:18:30.481Z,96980.06
2023-01-17T12:21:21.727Z,96981.69
2023-01-17T12:23:59.439Z,96984.19
2023-01-17T12:26:45.586Z,96978.16
2023-01-17T12:29:31.614Z,96982.00
2023-01-17T12:32:17.104Z,96984.44
2023-01-17T12:34:51.106Z,96987.88
2023-01-17T12:37:57.354Z,96996.00
2023-01-17T12:40:35.932Z,97005.38
2023-01-17T12:43:21.208Z,97005.06
2023-01-17T12:45:50.154Z,97007.59
2023-01-17T12:48:20.974Z,96995.53
2023-01-17T12:50:54.639Z,97010.78
2023-01-17T12:53:26.401Z,97008.34
2023-01-17T12:55:54.446Z,97018.03
2023-01-17T12:58:25.896Z,97022.13
2023-01-17T13:01:17.463Z,97018.81
2023-01-17T13:04:03.641Z,97015.91
2023-01-17T13:06:56.949Z,97009.16
2023-01-17T13:09:39.809Z,97012.94
2023-01-17T13:12:10.690Z,97013.97
2023-01-17T13:14:40.112Z,96999.94
2023-01-17T13:17:25.666Z,96996.31
2023-01-17T13:20:13.450Z,96985.59
2023-01-17T13:22:41.121Z,96987.16
2023-01-17T13:25:14.222Z,96992.97
2023-01-17T13:28:01.024Z,96993.13
2023-01-17T13:30:46.776Z,97007.34
2023-01-17T13:33:20.089Z,97017.03
2023-01-17T13:35:50.484Z,97025.31
2023-01-17T13:38:37.400Z,97035.84
2023-01-17T13:41:13.701Z,97037.41
2023-01-17T13:44:02.539Z,97034.78
2023-01-17T13:46:31.215Z,97034.72
2023-01-17T13:49:17.836Z,97049.28
2023-01-17T13:52:03.252Z,97046.41
2023-01-17T13:54:32.890Z,97051.91
2023-01-17T13:57:29.213Z,97072.91
2023-01-17T14:00:24.585Z,97067.31
2023-01-17T14:02:52.233Z,97090.66
2023-01-17T14:05:43.861Z,97092.88
2023-01-17T14:08:22.177Z,97098.72
2023-01-17T14:10:52.374Z,97108.44
2023-01-17T14:13:37.696Z,97119.31
2023-01-17T14:16:09.406Z,97123.56
2023-01-17T14:18:37.047Z,97137.56
2023-01-17T14:21:22.660Z,97139.47
2023-01-17T14:24:08.964Z,97142.69
2023-01-17T14:26:36.899Z,97156.50
2023-01-17T14:29:29.911Z,97163.06
2023-01-17T14:32:01.164Z,97167.75
2023-01-17T14:34:28.932Z,97167.28
2023-01-17T14:37:15.315Z,97175.50
2023-01-17T14:39:46.540Z,97179.97
2023-01-17T14:42:18.179Z,97174.94
2023-01-17T14:44:46.825Z,97168.97
2023-01-17T14:47:16.815Z,97174.19
2023-01-17T14:49:44.765Z,97164.47
2023-01-17T14:52:16.559Z,97165.81
2023-01-17T14:54:51.865Z,97163.56
2023-01-17T14:57:28.933Z,97158.00
2023-01-17T15:00:14.195Z,97158.38
2023-01-17T15:02:42.789Z,97162.69
2023-01-17T15:05:15.621Z,97161.28
2023-01-17T15:07:44.826Z,97162.50
2023-01-17T15:10:19.303Z,97157.91
2023-01-17T15:12:49.090Z,97154.66
2023-01-17T15:15:30.639Z,97154.34
2023-01-17T15:18:17.039Z,97154.81
2023-01-17T15:20:49.021Z,97149.09
2023-01-17T15:23:18.931Z,97154.34
2023-01-17T15:25:49.945Z,97148.66
2023-01-17T15:28:17.178Z,97146.97
2023-01-17T15:31:05.673Z,97159.53
2023-01-17T15:33:35.748Z,97145.47
2023-01-17T15:36:04.755Z,97152.41
2023-01-17T15:38:38.747Z,97155.97
2023-01-17T15:41:15.613Z,97149.56
2023-01-17T15:43:44.503Z,97147.25
2023-01-17T15:46:47.039Z,97145.84
2023-01-17T15:49:24.405Z,97139.09
2023-01-17T15:52:13.987Z,97141.53
2023-01-17T15:54:47.795Z,97132.53
2023-01-17T15:57:18.411Z,97132.81
2023-01-17T15:59:45.884Z,97118.75
2023-01-17T16:02:27.694Z,97116.94
2023-01-17T16:04:54.929Z,97111.59
2023-01-17T16:07:27.392Z,97108.09
2023-01-17T16:10:01.847Z,97104.81
2023-01-17T16:12:34.992Z,97109.75
2023-01-17T16:15:12.560Z,97104.09
2023-01-17T16:17:41.034Z,97097.97
2023-01-17T16:20:21.153Z,97101.16
2023-01-17T16:22:49.138Z,97096.44
2023-01-17T16:25:18.065Z,97083.94
2023-01-17T16:27:45.823Z,97081.25
2023-01-17T16:30:17.171Z,97085.47
2023-01-17T16:32:53.904Z,97083.00
2023-01-17T16:35:22.846Z,97082.44
2023-01-17T16:38:01.415Z,97090.28
2023-01-17T16:40:30.347Z,97098.97
2023-01-17T16:42:59.284Z,97102.34
2023-01-17T16:45:26.203Z,97098.34
2023-01-17T16:47:55.201Z,97093.78
2023-01-17T16:50:23.569Z,97100.09
2023-01-17T16:52:54.545Z,97103.38
2023-01-17T16:55:23.236Z,97099.13
2023-01-17T16:57:57.721Z,97101.94
2023-01-17T17:00:25.241Z,97096.22
2023-01-17T17:02:52.726Z,97087.09
2023-01-17T17:05:20.213Z,97081.44
2023-01-17T17:07:51.639Z,97079.19
2023-01-17T17:10:20.482Z,97082.28
2023-01-17T17:12:54.486Z,97088.78
2023-01-17T17:15:22.237Z,97090.47
2023-01-17T17:17:50.155Z,97087.59
2023-01-17T17:20:19.099Z,97086.59
2023-01-17T17:22:51.943Z,97091.75
2023-01-17T17:25:27.776Z,97092.25
2023-01-17T17:27:55.280Z,97098.84
2023-01-17T17:30:22.757Z,97096.56
2023-01-17T17:32:51.191Z,97091.13
2023-01-17T17:35:19.711Z,97100.09
2023-01-17T17:37:49.024Z,97097.44
2023-01-17T17:40:22.483Z,97100.34
2023-01-17T17:42:52.586Z,97106.72
2023-01-17T17:45:19.873Z,97106.88
2023-01-17T17:47:47.357Z,97111.16
2023-01-17T17:50:18.036Z,97113.31
2023-01-17T17:52:47.479Z,97118.78
2023-01-17T17:55:19.179Z,97118.63
2023-01-17T17:57:46.840Z,97111.09
2023-01-17T18:00:15.041Z,97121.69
2023-01-17T18:02:42.258Z,97129.34
2023-01-17T18:05:10.406Z,97131.81
2023-01-17T18:07:38.924Z,97139.47
2023-01-17T18:10:06.703Z,97144.34
2023-01-17T18:12:34.060Z,97140.69
2023-01-17T18:15:02.114Z,97145.16
2023-01-17T18:17:30.759Z,97150.19
2023-01-17T18:20:00.427Z,97159.06
2023-01-17T18:22:31.343Z,97158.41
2023-01-17T18:24:59.304Z,97165.44
2023-01-17T18:27:26.870Z,97159.50
2023-01-17T18:29:55.541Z,97163.22
2023-01-17T18:32:27.830Z,97158.66
2023-01-17T18:34:56.566Z,97147.56
2023-01-17T18:37:24.245Z,97150.00
2023-01-17T18:39:52.407Z,97154.41
2023-01-17T18:42:21.801Z,97161.38
2023-01-17T18:44:51.333Z,97166.00
2023-01-17T18:47:18.947Z,97172.09
2023-01-17T18:49:46.511Z,97169.78
2023-01-17T18:52:21.351Z,97180.34
2023-01-17T18:54:54.418Z,97190.00
2023-01-17T18:57:22.427Z,97193.78
2023-01-17T18:59:50.234Z,97191.69
2023-01-17T19:02:18.736Z,97187.88
2023-01-17T19:04:46.908Z,97186.34
2023-01-17T19:07:14.742Z,97173.50
2023-01-17T19:09:44.975Z,97168.59
2023-01-17T19:12:12.655Z,97149.69
2023-01-17T19:14:40.741Z,97150.00
2023-01-17T19:17:13.983Z,97148.50
2023-01-17T19:19:44.734Z,97155.63
2023-01-17T19:22:13.759Z,97164.22
2023-01-17T19:24:42.300Z,97156.41
2023-01-17T19:27:11.783Z,97156.88
2023-01-17T19:29:40.445Z,97169.91
2023-01-17T19:32:14.387Z,97166.31
2023-01-17T19:34:42.388Z,97160.69
2023-01-17T19:37:10.273Z,97160.81
2023-01-17T19:39:38.282Z,97162.13
2023-01-17T19:42:06.295Z,97151.25
2023-01-17T19:44:35.623Z,97148.44
2023-01-17T19:47:03.608Z,97143.88
2023-01-17T19:49:32.810Z,97145.56
2023-01-17T19:52:01.728Z,97148.88
2023-01-17T19:54:31.812Z,97144.59
2023-01-17T19:57:00.676Z,97141.25
2023-01-17T19:59:30.799Z,97139.53
2023-01-17T20:02:01.328Z,97139.69
2023-01-17T20:04:29.281Z,97127.56
2023-01-17T20:07:00.541Z,97130.66
2023-01-17T20:09:30.468Z,97125.75
2023-01-17T20:11:59.355Z,97133.47
2023-01-17T20:14:27.192Z,97131.09
2023-01-17T20:16:54.825Z,97131.78
2023-01-17T20:19:22.145Z,97131.06
2023-01-17T20:21:50.013Z,97132.06
2023-01-17T20:24:17.727Z,97138.81
2023-01-17T20:26:49.299Z,97132.38
2023-01-17T20:29:22.373Z,97133.28
2023-01-17T20:31:54.471Z,97140.53
2023-01-17T20:34:26.130Z,97129.63
2023-01-17T20:36:55.442Z,97129.88
2023-01-17T20:39:23.284Z,97120.53
2023-01-17T20:41:51.947Z,97128.97
2023-01-17T20:44:20.432Z,97132.63
2023-01-17T20:46:53.328Z,97138.38
2023-01-17T20:49:23.351Z,97123.72
2023-01-17T20:51:50.865Z,97127.97
2023-01-17T20:54:19.393Z,97124.47
2023-01-17T20:56:48.282Z,97122.81
2023-01-17T20:59:20.690Z,97118.06
2023-01-17T21:01:50.967Z,97116.47
2023-01-17T21:04:25.480Z,97112.09
2023-01-17T21:06:55.216Z,97111.53
2023-01-17T21:09:24.179Z,97092.59
2023-01-17T21:11:54.612Z,97090.22
2023-01-17T21:14:22.101Z,97086.06
2023-01-17T21:16:50.660Z,97086.06
2023-01-17T21:19:17.900Z,97076.28
2023-01-17T21:21:48.710Z,97078.59
2023-01-17T21:24:19.070Z,97090.38
2023-01-17T21:26:46.866Z,97091.63
2023-01-17T21:29:16.296Z,97097.59
2023-01-17T21:31:49.739Z,97100.28
2023-01-17T21:34:16.939Z,97095.75
2023-01-17T21:36:44.955Z,97104.34
2023-01-17T21:39:13.568Z,97102.38
2023-01-17T21:41:42.421Z,97102.25
2023-01-17T21:44:15.706Z,97093.50
2023-01-17T21:46:43.213Z,97089.81
2023-01-17T21:49:13.508Z,97100.56
2023-01-17T21:51:52.964Z,97103.16
2023-01-17T21:54:45.874Z,97107.47
2023-01-17T21:57:32.566Z,97108.03
2023-01-17T21:59:59.548Z,97105.69
2023-01-17T22:02:26.497Z,97106.75
2023-01-17T22:04:55.144Z,97108.31
2023-01-17T22:07:22.694Z,97113.63
2023-01-17T22:09:50.100Z,97106.69
2023-01-17T22:12:17.396Z,97112.94
2023-01-17T22:14:45.381Z,97092.41
2023-01-17T22:17:14.412Z,97101.66
2023-01-17T22:19:41.369Z,97092.09
2023-01-17T22:22:09.813Z,97085.50
2023-01-17T22:24:42.906Z,97089.16
2023-01-17T22:27:10.244Z,97085.91
2023-01-17T22:29:38.187Z,97082.25
2023-01-17T22:32:06.237Z,97082.34
2023-01-17T22:34:33.216Z,97083.53
2023-01-17T22:37:10.294Z,97087.31
2023-01-17T22:39:37.945Z,97081.84
2023-01-17T22:42:05.615Z,97070.50
2023-01-17T22:44:35.786Z,97065.91
2023-01-17T22:47:10.500Z,97056.78
2023-01-17T22:49:37.436Z,97053.13
2023-01-17T22:52:04.441Z,97060.78
2023-01-17T22:54:32.798Z,97064.22
2023-01-17T22:57:00.142Z,97057.59
2023-01-17T22:59:27.146Z,97056.06
2023-01-17T23:01:54.285Z,97064.88
2023-01-17T23:04:21.730Z,97063.31
2023-01-17T23:06:48.654Z,97061.72
2023-01-17T23:09:17.613Z,97061.00
2023-01-17T23:11:53.251Z,97059.72
2023-01-17T23:14:27.556Z,97059.09
2023-01-17T23:17:20.529Z,97061.72
2023-01-17T23:19:49.781Z,97054.94
2023-01-17T23:22:27.187Z,97058.59
2023-01-17T23:25:02.434Z,97053.19
2023-01-17T23:27:48.087Z,97046.94
2023-01-17T23:30:16.112Z,97049.53
2023-01-17T23:32:48.726Z,97036.03
2023-01-17T23:35:16.902Z,97043.69
2023-01-17T23:38:02.664Z,97048.41
2023-01-17T23:40:31.213Z,97043.00
2023-01-17T23:43:22.962Z,97040.25
2023-01-17T23:45:52.303Z,97040.75
2023-01-17T23:48:21.401Z,97036.72
2023-01-17T23:50:49.806Z,97039.69
2023-01-17T23:53:24.641Z,97040.09
2023-01-17T23:55:52.863Z,97043.41
2023-01-17T23:58:20.869Z,97036.03
